Time;durP1;ratioP1;P1;durP2;ratioP2;P2;SDS_P1;SDS_P2;PMS_P1;PMS_P2;Temp;Humidity;BMP_temperature;BMP_pressure;BME280_temperature;BME280_humidity;BME280_pressure;Samples;Min_cycle;Max_cycle;Signal;HPM_P1;HPM_P2
2021/09/28 00:00:25;;;;;;;5.40;4.05;;;;;;;8.46;82.39;100042.06;5053290;28;20044;-62
2021/09/28 00:02:50;;;;;;;6.45;3.85;;;;;;;8.47;82.23;100043.72;5053339;28;20040;-62
2021/09/28 00:05:16;;;;;;;5.68;3.42;;;;;;;8.39;82.23;100042.09;5054172;28;20434;-63
2021/09/28 00:07:42;;;;;;;6.75;4.22;;;;;;;8.41;81.62;100042.69;5053023;28;20049;-61
2021/09/28 00:10:08;;;;;;;7.00;4.00;;;;;;;8.41;81.97;100045.34;5054486;28;20478;-62
2021/09/28 00:12:34;;;;;;;7.43;4.18;;;;;;;8.39;82.16;100038.63;5054096;28;20091;-62
2021/09/28 00:15:00;;;;;;;6.35;4.03;;;;;;;8.43;81.91;100054.88;5053198;28;20102;-62
2021/09/28 00:17:25;;;;;;;6.57;3.90;;;;;;;8.46;81.39;100041.25;5054507;28;20044;-62
2021/09/28 00:19:51;;;;;;;6.05;3.50;;;;;;;8.50;81.48;100045.94;5054064;28;20048;-62
2021/09/28 00:22:17;;;;;;;6.70;3.30;;;;;;;8.47;81.05;100053.44;5054298;28;20127;-61
2021/09/28 00:24:42;;;;;;;5.30;3.65;;;;;;;8.49;80.94;100048.78;5053972;28;20127;-63
2021/09/28 00:27:08;;;;;;;5.68;3.58;;;;;;;8.50;80.96;100056.50;5054261;28;20060;-62
2021/09/28 00:29:34;;;;;;;5.63;3.75;;;;;;;8.49;80.81;100054.84;5053710;28;20041;-62
2021/09/28 00:32:00;;;;;;;6.70;3.72;;;;;;;8.51;80.20;100054.66;5054081;28;20053;-62
2021/09/28 00:34:25;;;;;;;4.28;3.00;;;;;;;8.48;80.12;100053.25;5053363;28;20131;-62
2021/09/28 00:36:51;;;;;;;4.78;3.42;;;;;;;8.43;80.70;100054.88;5054142;28;20131;-61
2021/09/28 00:39:17;;;;;;;3.88;2.63;;;;;;;8.40;79.92;100056.91;5052437;28;20029;-61
2021/09/28 00:41:42;;;;;;;4.55;3.08;;;;;;;8.37;80.29;100057.28;5053896;28;20045;-63
2021/09/28 00:44:08;;;;;;;4.47;2.85;;;;;;;8.36;79.82;100066.25;5053520;28;20453;-60
2021/09/28 00:46:34;;;;;;;3.08;2.60;;;;;;;8.32;79.19;100078.22;5053784;28;20558;-63
2021/09/28 00:49:00;;;;;;;5.43;3.03;;;;;;;8.25;79.72;100066.88;5053528;28;20040;-62
2021/09/28 00:51:26;;;;;;;3.97;2.90;;;;;;;8.32;80.11;100066.84;5052444;28;20049;-62
2021/09/28 00:53:54;;;;;;;7.82;2.78;;;;;;;8.35;79.87;100058.50;5052188;28;20090;-62
2021/09/28 00:56:21;;;;;;;5.95;3.38;;;;;;;8.31;80.17;100067.88;5053526;28;20064;-62
2021/09/28 00:59:00;;;;;;;31.25;18.90;;;;;;;8.33;79.73;100071.94;5053324;28;20064;-62
2021/09/28 01:01:26;;;;;;;;;;;;;;;8.30;78.36;100072.34;5054112;28;20055;-62
2021/09/28 01:03:52;;;;;;;4.47;2.85;;;;;;;8.30;78.91;100076.84;5052313;28;19920;-62
2021/09/28 01:06:18;;;;;;;4.30;2.75;;;;;;;8.26;78.80;100078.25;5052121;28;20105;-63
2021/09/28 01:08:43;;;;;;;3.92;2.50;;;;;;;8.21;79.66;100073.59;5053117;28;20053;-62
2021/09/28 01:11:10;;;;;;;3.78;2.58;;;;;;;8.20;78.82;100093.88;5051851;28;20048;-61
2021/09/28 01:13:36;;;;;;;3.65;2.60;;;;;;;8.22;79.10;100084.97;5035200;28;20461;-61
2021/09/28 01:16:02;;;;;;;6.30;2.75;;;;;;;8.20;78.56;100093.88;5051752;28;20037;-62
2021/09/28 01:18:29;;;;;;;3.60;2.45;;;;;;;8.14;79.52;100091.25;5052973;28;20033;-61
2021/09/28 01:20:55;;;;;;;3.95;2.67;;;;;;;8.28;78.54;100089.41;5051753;28;20056;-62
2021/09/28 01:23:21;;;;;;;4.05;2.72;;;;;;;8.30;78.88;100104.06;5051682;28;20041;-62
2021/09/28 01:25:47;;;;;;;5.88;2.45;;;;;;;8.31;78.83;100108.31;5052975;28;20037;-62
2021/09/28 01:28:13;;;;;;;3.85;2.45;;;;;;;8.30;78.42;100113.81;5051572;28;20041;-62
2021/09/28 01:30:38;;;;;;;3.28;2.42;;;;;;;8.35;77.82;100106.06;5051464;28;20059;-62
2021/09/28 01:33:04;;;;;;;3.58;2.45;;;;;;;8.35;78.11;100112.19;5051654;28;20043;-62
2021/09/28 01:35:30;;;;;;;2.65;2.20;;;;;;;8.30;78.24;100116.44;5051526;28;20132;-63
2021/09/28 01:37:57;;;;;;;4.25;2.90;;;;;;;8.26;79.49;100120.50;5053079;28;20481;-62
2021/09/28 01:40:23;;;;;;;3.58;2.83;;;;;;;8.25;80.33;100126.81;5051316;28;20132;-63
2021/09/28 01:42:49;;;;;;;4.53;2.60;;;;;;;8.19;79.61;100118.69;5052885;28;20463;-63
2021/09/28 01:45:15;;;;;;;4.05;2.72;;;;;;;8.20;79.54;100124.75;5052091;28;20497;-63
2021/09/28 01:47:41;;;;;;;4.63;3.05;;;;;;;8.23;79.32;100124.34;5034597;28;20115;-62
2021/09/28 01:50:08;;;;;;;5.20;3.08;;;;;;;8.17;79.79;100133.09;5052620;28;20095;-63
2021/09/28 01:52:35;;;;;;;5.00;3.05;;;;;;;8.19;79.94;100131.06;5060389;28;20048;-63
2021/09/28 01:55:01;;;;;;;3.72;2.70;;;;;;;8.17;79.58;100143.66;5062641;28;20036;-61
2021/09/28 01:57:27;;;;;;;5.15;2.97;;;;;;;8.09;78.79;100144.69;5061058;28;20041;-62
2021/09/28 01:59:52;;;;;;;4.53;3.13;;;;;;;8.04;79.32;100136.56;5062061;28;20062;-64
2021/09/28 02:02:18;;;;;;;3.00;2.40;;;;;;;8.10;78.71;100142.84;5061125;28;20037;-62
2021/09/28 02:04:44;;;;;;;3.92;2.42;;;;;;;8.06;77.93;100152.19;5060660;28;20029;-59
2021/09/28 02:07:10;;;;;;;3.97;2.00;;;;;;;7.99;75.51;100156.66;5027757;28;20093;-62
2021/09/28 02:09:35;;;;;;;3.17;2.05;;;;;;;7.86;76.27;100153.00;5054706;28;20044;-62
2021/09/28 02:12:01;;;;;;;1.98;1.60;;;;;;;7.84;76.09;100157.66;5052287;28;20052;-62
2021/09/28 02:14:28;;;;;;;3.65;2.28;;;;;;;7.86;75.19;100157.47;5052148;28;20044;-62
2021/09/28 02:16:55;;;;;;;3.20;1.95;;;;;;;7.84;75.58;100147.09;5052233;28;20473;-62
2021/09/28 02:19:21;;;;;;;2.45;1.60;;;;;;;7.83;75.55;100163.13;5051798;28;20100;-63
2021/09/28 02:21:47;;;;;;;3.67;1.98;;;;;;;7.80;75.53;100164.34;5052096;28;20045;-62
2021/09/28 02:24:13;;;;;;;2.92;1.83;;;;;;;7.82;75.54;100164.13;5052015;28;20048;-63
2021/09/28 02:26:39;;;;;;;4.32;1.90;;;;;;;7.84;76.50;100157.66;5050307;28;20052;-63
2021/09/28 02:29:05;;;;;;;2.83;2.00;;;;;;;7.89;76.53;100160.50;5051436;28;20037;-62
2021/09/28 02:31:31;;;;;;;4.07;2.20;;;;;;;7.84;77.06;100156.84;5051461;28;20452;-63
2021/09/28 02:33:57;;;;;;;2.45;1.98;;;;;;;7.84;77.43;100176.13;5051018;28;20044;-62
2021/09/28 02:36:23;;;;;;;3.63;2.10;;;;;;;7.83;77.29;100176.34;5051879;28;20060;-63
2021/09/28 02:38:49;;;;;;;2.75;2.00;;;;;;;7.74;77.98;100168.59;5051447;28;20127;-63
2021/09/28 02:41:15;;;;;;;2.50;2.10;;;;;;;7.80;77.98;100174.09;5051860;28;20132;-63
2021/09/28 02:43:41;;;;;;;4.32;2.47;;;;;;;7.83;78.24;100177.16;5051463;28;20490;-62
2021/09/28 02:46:07;;;;;;;3.08;2.30;;;;;;;7.88;77.76;100182.66;5051395;28;20136;-62
2021/09/28 02:48:33;;;;;;;3.72;2.03;;;;;;;7.70;78.66;100171.81;5051360;28;20051;-62
2021/09/28 02:50:58;;;;;;;4.75;2.20;;;;;;;7.61;79.48;100180.94;5051281;28;20505;-63
2021/09/28 02:53:24;;;;;;;3.13;2.30;;;;;;;7.62;80.48;100182.59;5051597;28;20044;-63
2021/09/28 02:55:50;;;;;;;5.15;2.35;;;;;;;7.65;80.27;100179.53;5051364;28;20041;-62
2021/09/28 02:58:16;;;;;;;3.67;2.30;;;;;;;7.67;79.83;100188.88;5051505;28;20045;-63
2021/09/28 03:00:41;;;;;;;4.15;2.30;;;;;;;7.63;79.68;100185.00;5051495;28;20542;-63
2021/09/28 03:03:07;;;;;;;4.85;2.53;;;;;;;7.61;80.27;100196.75;5051210;28;20044;-62
2021/09/28 03:05:33;;;;;;;4.07;2.53;;;;;;;7.59;79.82;100186.41;5050240;28;20506;-62
2021/09/28 03:07:59;;;;;;;4.18;2.70;;;;;;;7.51;80.42;100197.94;5051243;28;20059;-62
2021/09/28 03:10:25;;;;;;;3.75;2.65;;;;;;;7.49;80.26;100192.06;5050011;28;20051;-60
2021/09/28 03:12:51;;;;;;;6.55;2.20;;;;;;;7.51;80.90;100194.50;5051490;28;20053;-63
2021/09/28 03:15:17;;;;;;;3.85;2.72;;;;;;;7.59;80.63;100209.34;5049887;28;20521;-63
2021/09/28 03:17:43;;;;;;;2.80;2.10;;;;;;;7.58;78.93;100220.91;5051520;28;20049;-63
2021/09/28 03:20:09;;;;;;;3.25;2.05;;;;;;;7.51;78.14;100226.16;5051369;28;20414;-63
2021/09/28 03:22:35;;;;;;;4.93;2.45;;;;;;;7.37;77.90;100212.09;5051404;28;20044;-63
2021/09/28 03:25:01;;;;;;;4.22;2.67;;;;;;;7.31;77.76;100219.97;5049819;28;20044;-61
2021/09/28 03:27:27;;;;;;;4.25;2.50;;;;;;;7.28;77.84;100224.63;5051366;28;20494;-62
2021/09/28 03:29:53;;;;;;;4.95;2.65;;;;;;;7.31;77.99;100222.63;5051258;28;20045;-63
2021/09/28 03:32:18;;;;;;;5.00;3.22;;;;;;;7.26;76.92;100224.03;5051321;28;20049;-62
2021/09/28 03:34:44;;;;;;;3.97;2.50;;;;;;;7.27;77.49;100230.13;5051267;28;20582;-63
2021/09/28 03:37:10;;;;;;;4.40;2.92;;;;;;;7.17;76.62;100235.72;5051330;28;20502;-62
2021/09/28 03:39:36;;;;;;;4.15;2.78;;;;;;;7.16;76.93;100234.09;5050926;28;20045;-62
2021/09/28 03:42:02;;;;;;;3.97;3.03;;;;;;;7.17;76.71;100243.63;5051262;28;20085;-63
2021/09/28 03:44:27;;;;;;;4.47;3.03;;;;;;;7.22;76.63;100243.06;5051056;28;20517;-62
2021/09/28 03:46:53;;;;;;;4.65;3.35;;;;;;;7.25;76.49;100248.75;5049530;28;20049;-64
2021/09/28 03:49:19;;;;;;;4.50;3.20;;;;;;;7.21;76.56;100239.63;5050863;28;20076;-63
2021/09/28 03:51:45;;;;;;;4.95;3.10;;;;;;;7.16;76.39;100244.66;5051029;28;20478;-62
2021/09/28 03:54:11;;;;;;;4.68;3.00;;;;;;;7.18;76.36;100250.56;5049562;28;20140;-63
2021/09/28 03:56:36;;;;;;;3.53;2.60;;;;;;;7.22;76.25;100248.34;5050954;28;20045;-63
2021/09/28 03:59:02;;;;;;;4.63;2.95;;;;;;;7.28;76.31;100253.63;5050779;28;20513;-63
2021/09/28 04:01:28;;;;;;;4.53;3.35;;;;;;;7.29;76.56;100259.72;5032896;28;20041;-63
2021/09/28 04:03:54;;;;;;;4.75;2.83;;;;;;;7.21;75.53;100258.06;5049301;28;20143;-62
2021/09/28 04:06:20;;;;;;;4.57;3.15;;;;;;;7.15;75.76;100250.13;5050750;28;20495;-63
2021/09/28 04:08:45;;;;;;;5.10;3.08;;;;;;;7.23;76.06;100256.03;5049661;28;20088;-63
2021/09/28 04:11:11;;;;;;;4.32;3.00;;;;;;;7.25;76.05;100258.50;5054237;28;20045;-63
2021/09/28 04:13:40;;;;;;;6.53;3.05;;;;;;;7.25;76.05;100261.94;5054183;28;20410;-62
2021/09/28 04:16:07;;;;;;;4.40;3.00;;;;;;;7.28;76.02;100264.19;5053024;28;20041;-63
2021/09/28 04:18:33;;;;;;;4.88;3.35;;;;;;;7.25;75.72;100269.03;5054347;28;20076;-64
2021/09/28 04:21:00;;;;;;;5.95;3.58;;;;;;;7.26;75.80;100271.50;5054015;28;20510;-63
2021/09/28 04:23:26;;;;;;;5.18;3.05;;;;;;;7.25;76.13;100288.31;5052982;28;20086;-63
2021/09/28 04:25:52;;;;;;;5.85;3.58;;;;;;;7.18;76.06;100278.75;5054014;28;20457;-63
2021/09/28 04:28:17;;;;;;;5.50;3.40;;;;;;;7.12;76.62;100274.22;5052907;28;20049;-63
2021/09/28 04:30:43;;;;;;;6.22;3.30;;;;;;;7.05;76.91;100277.63;5052593;28;20045;-63
2021/09/28 04:33:09;;;;;;;4.38;3.67;;;;;;;7.08;77.08;100281.69;5053596;28;20080;-63
2021/09/28 04:35:35;;;;;;;5.35;3.78;;;;;;;7.06;76.67;100291.66;5053614;28;20041;-62
2021/09/28 04:38:01;;;;;;;6.78;4.00;;;;;;;7.03;76.20;100300.75;5053578;28;20040;-64
2021/09/28 04:40:27;;;;;;;5.28;3.42;;;;;;;6.96;76.28;100307.78;5053859;28;20040;-64
2021/09/28 04:42:52;;;;;;;6.35;3.63;;;;;;;6.95;76.08;100294.81;5053779;28;20557;-64
2021/09/28 04:45:18;;;;;;;5.97;3.80;;;;;;;6.92;75.69;100303.91;5053721;28;20069;-66
2021/09/28 04:47:44;;;;;;;7.38;4.00;;;;;;;6.93;75.30;100294.97;5052352;28;20037;-65
2021/09/28 04:50:10;;;;;;;7.20;3.67;;;;;;;6.88;74.12;100299.19;5052139;28;20041;-64
2021/09/28 04:52:36;;;;;;;6.43;4.47;;;;;;;6.85;74.38;100307.47;5053653;28;20080;-63
2021/09/28 04:55:04;;;;;;;11.90;4.25;;;;;;;6.89;75.29;100306.13;5053297;28;20049;-63
2021/09/28 04:57:29;;;;;;;7.03;4.30;;;;;;;6.90;74.44;100307.72;5052204;28;20057;-63
2021/09/28 04:59:55;;;;;;;6.60;4.22;;;;;;;6.83;73.76;100310.31;5051798;28;20041;-64
2021/09/28 05:02:21;;;;;;;8.18;4.85;;;;;;;6.87;73.80;100316.84;5053480;28;20131;-68
2021/09/28 05:04:47;;;;;;;10.13;4.82;;;;;;;6.80;72.60;100319.41;5052250;28;20072;-64
2021/09/28 05:07:12;;;;;;;7.45;4.57;;;;;;;6.83;72.70;100332.22;5053064;28;20372;-63
2021/09/28 05:09:39;;;;;;;8.15;5.25;;;;;;;6.83;72.50;100350.66;5051985;28;20126;-64
2021/09/28 05:12:05;;;;;;;8.68;5.20;;;;;;;6.72;73.07;100330.09;5053202;28;20629;-66
2021/09/28 05:14:32;;;;;;;8.90;5.40;;;;;;;6.78;72.62;100323.25;5051695;28;20529;-65
2021/09/28 05:16:58;;;;;;;8.40;5.32;;;;;;;6.85;73.08;100336.47;5035165;28;20060;-65
2021/09/28 05:19:24;;;;;;;11.35;5.93;;;;;;;6.85;72.70;100349.66;5053065;28;20040;-62
2021/09/28 05:21:50;;;;;;;10.88;6.50;;;;;;;6.82;72.56;100348.19;5051863;28;20047;-63
2021/09/28 05:24:17;;;;;;;8.23;5.03;;;;;;;6.76;72.43;100352.41;5052476;28;20041;-62
2021/09/28 05:26:42;;;;;;;9.00;4.70;;;;;;;6.73;72.54;100358.06;5051660;28;20138;-65
2021/09/28 05:29:08;;;;;;;8.32;4.78;;;;;;;6.81;71.97;100362.41;5052643;28;20497;-66
2021/09/28 05:31:34;;;;;;;7.72;5.30;;;;;;;6.86;72.18;100362.66;5051525;28;20045;-61
2021/09/28 05:34:00;;;;;;;7.90;6.00;;;;;;;6.92;72.52;100363.72;5052447;28;20505;-64
2021/09/28 05:36:25;;;;;;;10.30;5.45;;;;;;;6.88;72.64;100363.25;5052687;28;20479;-64
2021/09/28 05:38:51;;;;;;;8.20;5.43;;;;;;;6.94;72.67;100365.16;5069297;28;20040;-63
2021/09/28 05:41:17;;;;;;;8.20;5.32;;;;;;;7.06;72.61;100362.84;5072734;28;20056;-64
2021/09/28 05:43:43;;;;;;;10.15;6.03;;;;;;;7.05;72.65;100371.72;5072301;28;20524;-65
2021/09/28 05:46:10;;;;;;;7.97;5.35;;;;;;;7.01;72.26;100371.28;5072354;28;20102;-60
2021/09/28 05:48:35;;;;;;;9.73;5.18;;;;;;;6.94;72.22;100386.25;5072510;28;20052;-62
2021/09/28 05:51:02;;;;;;;9.55;5.07;;;;;;;6.95;72.57;100381.78;5071968;28;20418;-60
2021/09/28 05:53:36;;;;;;;10.88;5.40;;;;;;;6.94;72.60;100394.16;5054169;28;20521;-60
2021/09/28 05:56:02;;;;;;;9.55;5.63;;;;;;;6.90;72.33;100389.44;5038456;28;20498;-61
2021/09/28 05:58:28;;;;;;;11.13;5.85;;;;;;;7.01;72.80;100388.94;5070612;28;20055;-61
2021/09/28 06:00:53;;;;;;;8.02;5.47;;;;;;;7.05;72.60;100391.00;5072097;28;20048;-62
2021/09/28 06:03:20;;;;;;;8.75;5.75;;;;;;;7.02;72.09;100382.66;5071849;28;20044;-61
2021/09/28 06:05:45;;;;;;;8.07;5.60;;;;;;;7.11;72.11;100392.06;5070548;28;20552;-65
2021/09/28 06:08:11;;;;;;;11.75;6.15;;;;;;;7.12;71.94;100396.34;5053640;28;20048;-64
2021/09/28 06:10:37;;;;;;;10.15;5.70;;;;;;;7.21;71.91;100399.66;5070812;28;20041;-64
2021/09/28 06:13:03;;;;;;;6.78;4.90;;;;;;;7.20;70.60;100411.19;5067378;28;20423;-60
2021/09/28 06:15:29;;;;;;;8.45;5.63;;;;;;;7.20;70.77;100400.66;5066992;28;20041;-63
2021/09/28 06:17:55;;;;;;;8.20;5.80;;;;;;;7.25;70.90;100398.25;5050829;28;20040;-62
2021/09/28 06:20:21;;;;;;;9.32;5.45;;;;;;;7.25;71.56;100411.44;5067250;28;20549;-63
2021/09/28 06:22:47;;;;;;;10.35;5.97;;;;;;;7.28;71.41;100403.97;5066584;28;20121;-62
2021/09/28 06:25:13;;;;;;;9.13;6.03;;;;;;;7.33;71.79;100418.41;5070813;28;20533;-63
2021/09/28 06:27:38;;;;;;;9.52;6.45;;;;;;;7.42;71.92;100412.00;5066371;28;20131;-60
2021/09/28 06:30:05;;;;;;;10.93;6.38;;;;;;;7.39;72.00;100413.19;5065234;28;20524;-61
2021/09/28 06:32:31;;;;;;;11.82;7.25;;;;;;;7.41;72.52;100419.09;5048165;28;20364;-61
2021/09/28 06:34:57;;;;;;;12.18;7.63;;;;;;;7.39;72.76;100421.09;5067667;28;20097;-63
2021/09/28 06:37:23;;;;;;;15.32;6.43;;;;;;;7.41;72.11;100418.25;5049176;28;20411;-61
2021/09/28 06:39:49;;;;;;;8.70;6.03;;;;;;;7.46;72.63;100421.16;5068748;28;20062;-62
2021/09/28 06:42:14;;;;;;;12.13;6.15;;;;;;;7.40;71.72;100416.63;5068788;28;20492;-59
2021/09/28 06:44:40;;;;;;;10.43;5.80;;;;;;;7.33;72.66;100421.06;5033818;28;20032;-60
2021/09/28 06:47:07;;;;;;;10.38;6.68;;;;;;;7.39;72.79;100417.66;5068256;28;20350;-62
2021/09/28 06:49:32;;;;;;;10.27;6.63;;;;;;;7.34;72.76;100425.31;5069188;28;20422;-61
2021/09/28 06:51:58;;;;;;;17.33;6.72;;;;;;;7.32;72.34;100424.69;5068488;28;20082;-61
2021/09/28 06:54:25;;;;;;;9.00;6.40;;;;;;;7.29;72.13;100433.78;5068276;28;20041;-62
2021/09/28 06:56:50;;;;;;;8.95;6.30;;;;;;;7.32;72.44;100436.03;5069326;28;20402;-62
2021/09/28 06:59:18;;;;;;;8.95;6.28;;;;;;;7.32;71.82;100448.41;5068328;28;20036;-62
2021/09/28 07:01:44;;;;;;;12.20;6.35;;;;;;;7.27;71.70;100436.63;5068641;28;20140;-62
2021/09/28 07:04:10;;;;;;;10.30;6.82;;;;;;;7.20;72.37;100440.19;5066597;28;20032;-62
2021/09/28 07:06:36;;;;;;;10.50;6.78;;;;;;;7.17;72.88;100456.41;5066261;28;20416;-62
2021/09/28 07:09:02;;;;;;;13.73;6.47;;;;;;;7.17;73.30;100443.22;5050079;28;20057;-62
2021/09/28 07:11:28;;;;;;;16.98;6.60;;;;;;;7.20;72.88;100458.66;5066473;28;20490;-63
2021/09/28 07:13:56;;;;;;;11.70;7.28;;;;;;;7.23;73.11;100453.00;5066864;28;20043;-60
2021/09/28 07:16:23;;;;;;;11.65;6.60;;;;;;;7.26;72.89;100452.63;5048779;28;20099;-62
2021/09/28 07:18:49;;;;;;;11.48;6.45;;;;;;;7.29;72.73;100452.25;5065440;28;20048;-62
2021/09/28 07:21:15;;;;;;;13.13;7.22;;;;;;;7.33;72.67;100455.34;5050058;28;20048;-62
2021/09/28 07:23:41;;;;;;;10.15;6.30;;;;;;;7.37;71.91;100456.59;5068164;28;20583;-62
2021/09/28 07:26:08;;;;;;;11.55;6.45;;;;;;;7.40;71.27;100458.84;5067556;28;20172;-61
2021/09/28 07:28:34;;;;;;;13.30;6.97;;;;;;;7.42;71.64;100459.47;5066602;28;20139;-62
2021/09/28 07:31:00;;;;;;;10.07;6.45;;;;;;;7.50;71.85;100465.44;5066504;28;20493;-62
2021/09/28 07:33:26;;;;;;;14.15;5.88;;;;;;;7.43;72.38;100476.94;5069653;28;20120;-62
2021/09/28 07:35:54;;;;;;;8.60;6.10;;;;;;;7.48;71.58;100472.72;5068471;28;20052;-66
2021/09/28 07:38:20;;;;;;;10.68;6.90;;;;;;;7.51;71.20;100474.97;5069436;28;20444;-61
2021/09/28 07:40:48;;;;;;;8.95;6.47;;;;;;;7.57;71.93;100475.22;5068995;28;20041;-61
2021/09/28 07:43:14;;;;;;;8.85;5.95;;;;;;;7.59;71.21;100470.56;5067513;28;20499;-59
2021/09/28 07:45:41;;;;;;;11.75;6.43;;;;;;;7.71;71.17;100471.69;5071589;28;20131;-60
2021/09/28 07:48:07;;;;;;;11.57;6.05;;;;;;;7.74;70.40;100474.75;5071705;28;20445;-60
2021/09/28 07:50:33;;;;;;;9.95;6.13;;;;;;;7.77;69.53;100483.31;5052596;28;20067;-61
2021/09/28 07:52:58;;;;;;;9.60;6.32;;;;;;;7.63;69.88;100485.81;5071707;28;20048;-60
2021/09/28 07:55:25;;;;;;;9.20;5.35;;;;;;;7.62;69.16;100491.31;5072649;28;20071;-61
2021/09/28 07:57:50;;;;;;;10.43;6.40;;;;;;;7.60;68.89;100504.69;5072452;28;20049;-61
2021/09/28 08:00:16;;;;;;;9.70;6.18;;;;;;;7.63;68.33;100496.38;5070654;28;20082;-62
2021/09/28 08:02:43;;;;;;;8.57;5.32;;;;;;;7.77;67.39;100485.94;5072721;28;20048;-61
2021/09/28 08:05:10;;;;;;;11.25;5.45;;;;;;;7.97;66.28;100484.22;5069934;28;20033;-61
2021/09/28 08:07:36;;;;;;;8.25;5.05;;;;;;;8.14;65.82;100482.09;5071956;28;20094;-61
2021/09/28 08:10:03;;;;;;;9.15;5.55;;;;;;;8.33;65.19;100485.88;5071302;28;20043;-63
2021/09/28 08:12:28;;;;;;;8.40;5.55;;;;;;;8.41;63.97;100498.94;5070886;28;20516;-61
2021/09/28 08:14:54;;;;;;;7.85;5.20;;;;;;;8.33;63.92;100484.03;5071978;28;20041;-62
2021/09/28 08:17:22;;;;;;;7.32;5.50;;;;;;;8.37;64.35;100487.91;5072489;28;20053;-61
2021/09/28 08:19:49;;;;;;;12.70;6.15;;;;;;;8.43;65.23;100498.75;5071372;28;20036;-61
2021/09/28 08:22:16;;;;;;;7.28;5.25;;;;;;;8.49;64.77;100498.78;5072338;28;20051;-61
2021/09/28 08:24:43;;;;;;;9.05;6.20;;;;;;;8.54;64.47;100508.78;5072588;28;20047;-62
2021/09/28 08:30:00;;;;;;;8.20;5.60;;;;;;;8.44;64.30;100490.63;5071708;28;20464;-62
2021/09/28 08:32:26;;;;;;;9.88;5.50;;;;;;;8.54;63.87;100495.56;5070781;28;20425;-61
2021/09/28 08:34:52;;;;;;;13.85;5.70;;;;;;;8.69;62.93;100496.22;5054006;28;20032;-60
2021/09/28 08:37:19;;;;;;;7.65;5.25;;;;;;;8.64;63.37;100493.34;5069983;28;20406;-60
2021/09/28 08:39:45;;;;;;;9.63;5.85;;;;;;;8.85;63.04;100503.81;5068218;28;20051;-62
2021/09/28 08:42:12;;;;;;;7.45;5.38;;;;;;;9.01;62.69;100501.81;5052984;28;20106;-60
2021/09/28 08:44:39;;;;;;;13.93;6.03;;;;;;;9.14;62.58;100508.97;5070847;28;20516;-61
2021/09/28 08:47:05;;;;;;;8.88;5.45;;;;;;;9.10;62.15;100500.63;5072337;28;20051;-61
2021/09/28 08:49:31;;;;;;;9.38;5.47;;;;;;;9.08;62.42;100513.22;5070720;28;20044;-63
2021/09/28 08:51:57;;;;;;;8.20;5.63;;;;;;;8.81;63.85;100510.50;5070707;28;20429;-62
2021/09/28 08:54:23;;;;;;;7.88;5.60;;;;;;;8.74;63.74;100528.19;5070288;28;20055;-63
2021/09/28 08:56:49;;;;;;;8.57;5.65;;;;;;;8.56;63.26;100506.72;5069278;28;20055;-63
2021/09/28 08:59:15;;;;;;;6.85;4.85;;;;;;;8.56;63.40;100509.38;5072249;28;20044;-62
2021/09/28 09:02:08;;;;;;;7.55;5.32;;;;;;;8.62;62.13;100521.81;5070858;28;20102;-62
2021/09/28 09:04:35;;;;;;;7.93;4.80;;;;;;;8.59;62.54;100517.75;5069626;28;20041;-63
2021/09/28 09:07:21;;;;;;;7.88;4.97;;;;;;;8.65;61.45;100518.78;5072063;28;20048;-64
2021/09/28 09:09:49;;;;;;;7.20;5.07;;;;;;;8.70;61.64;100532.22;5069439;28;20426;-62
2021/09/28 09:12:29;;;;;;;6.35;4.80;;;;;;;8.63;61.04;100531.38;5068661;28;20060;-63
2021/09/28 09:15:25;;;;;;;7.60;4.40;;;;;;;8.59;61.21;100533.59;5070793;28;20039;-64
2021/09/28 09:18:11;;;;;;;7.68;4.30;;;;;;;8.58;60.22;100531.94;5071067;28;20709;-61
2021/09/28 09:20:42;;;;;;;7.50;4.65;;;;;;;8.68;60.56;100536.06;5068201;28;20498;-61
2021/09/28 09:23:32;;;;;;;6.18;4.32;;;;;;;8.60;60.32;100539.69;5068149;28;20051;-61
2021/09/28 09:26:10;;;;;;;9.77;4.32;;;;;;;8.68;59.76;100539.53;5052442;28;20533;-60
2021/09/28 09:28:48;;;;;;;5.90;4.40;;;;;;;8.76;59.56;100534.06;5069119;28;20040;-61
2021/09/28 09:31:32;;;;;;;6.13;4.30;;;;;;;8.76;59.71;100546.47;5070607;28;20436;-60
2021/09/28 09:34:08;;;;;;;7.85;4.68;;;;;;;8.81;59.43;100552.00;5067417;28;20049;-62
2021/09/28 09:36:34;;;;;;;7.38;4.60;;;;;;;8.88;59.72;100555.47;5052806;28;20251;-62
2021/09/28 09:39:03;;;;;;;9.85;5.22;;;;;;;8.92;60.20;100543.50;5068519;28;20094;-60
2021/09/28 09:41:32;;;;;;;8.85;4.88;;;;;;;8.93;59.86;100557.53;5069284;28;20143;-61
2021/09/28 09:44:13;;;;;;;7.15;4.60;;;;;;;8.79;59.97;100559.28;5069163;28;20437;-61
2021/09/28 09:46:47;;;;;;;9.43;4.22;;;;;;;8.70;59.84;100571.06;5070554;28;20040;-61
2021/09/28 09:49:15;;;;;;;5.00;3.92;;;;;;;8.61;60.26;100563.28;5069410;28;20044;-61
2021/09/28 09:51:44;;;;;;;7.88;4.70;;;;;;;8.67;59.48;100551.09;5051425;28;20528;-60
2021/09/28 09:54:10;;;;;;;6.35;4.35;;;;;;;8.71;59.24;100549.72;5068855;28;20508;-61
2021/09/28 09:56:44;;;;;;;5.85;4.10;;;;;;;8.80;59.78;100559.13;5068834;28;20067;-61
2021/09/28 09:59:11;;;;;;;8.32;4.50;;;;;;;8.89;59.41;100574.81;5069888;28;20047;-61
2021/09/28 10:01:37;;;;;;;5.25;4.07;;;;;;;9.01;59.69;100566.09;5068959;28;20041;-60
2021/09/28 10:04:05;;;;;;;12.95;5.03;;;;;;;9.13;59.00;100562.91;5049241;28;20044;-61
2021/09/28 10:06:31;;;;;;;5.43;4.32;;;;;;;9.03;59.72;100563.25;5067917;28;20048;-66
2021/09/28 10:08:57;;;;;;;11.55;4.70;;;;;;;9.12;59.38;100564.72;5051269;28;20048;-61
2021/09/28 10:11:26;;;;;;;6.32;4.82;;;;;;;9.07;59.89;100569.78;5063988;28;20067;-61
2021/09/28 10:13:54;;;;;;;6.65;4.80;;;;;;;9.04;60.27;100572.84;5064965;28;20040;-62
2021/09/28 10:16:32;;;;;;;7.82;5.10;;;;;;;9.11;60.13;100560.44;5066469;28;20053;-63
2021/09/28 10:18:58;;;;;;;8.50;4.63;;;;;;;9.11;60.03;100568.38;5063277;28;20036;-61
2021/09/28 10:21:43;;;;;;;8.18;4.53;;;;;;;9.23;59.41;100564.13;5065756;28;20090;-61
2021/09/28 10:24:18;;;;;;;11.10;4.95;;;;;;;9.38;59.46;100553.38;5067729;28;20044;-63
2021/09/28 10:26:45;;;;;;;7.32;4.25;;;;;;;9.44;57.35;100560.53;5067473;28;20521;-62
2021/09/28 10:29:38;;;;;;;5.15;4.10;;;;;;;9.55;57.08;100549.31;5063892;28;20064;-62
2021/09/28 10:32:23;;;;;;;6.68;4.78;;;;;;;9.71;57.48;100548.13;5066745;28;20394;-62
2021/09/28 10:35:08;;;;;;;7.97;4.55;;;;;;;9.74;56.19;100555.69;5068228;28;20044;-62
2021/09/28 10:37:52;;;;;;;6.88;4.43;;;;;;;9.88;55.93;100551.19;5069370;28;20548;-63
2021/09/28 10:40:21;;;;;;;12.00;4.60;;;;;;;9.95;56.16;100557.31;5068064;28;20090;-62
2021/09/28 10:42:51;;;;;;;7.60;4.68;;;;;;;10.04;55.50;100554.44;5068480;28;20047;-62
2021/09/28 10:45:21;;;;;;;6.25;4.28;;;;;;;10.08;55.86;100553.00;5068890;28;20079;-62
2021/09/28 10:47:57;;;;;;;;;;;;;;;10.21;55.64;100551.16;5062270;28;20315;-62
2021/09/28 10:50:28;;;;;;;11.00;4.65;;;;;;;10.33;54.90;100559.34;5032104;28;19924;-62
2021/09/28 10:53:00;;;;;;;6.88;4.53;;;;;;;10.29;55.43;100570.53;5048505;28;20111;-61
2021/09/28 10:55:38;;;;;;;9.07;4.55;;;;;;;10.08;55.86;100574.19;5047610;28;20564;-63
2021/09/28 10:58:13;;;;;;;9.80;4.43;;;;;;;10.11;56.21;100574.59;5046441;28;20314;-63
2021/09/28 11:00:39;;;;;;;5.40;4.43;;;;;;;10.05;55.72;100564.81;5048557;28;20087;-63
2021/09/28 11:03:05;;;;;;;7.57;4.93;;;;;;;10.09;56.79;100559.94;5044728;28;20045;-64
2021/09/28 11:06:05;;;;;;;14.35;5.10;;;;;;;10.01;57.24;100559.13;5048909;28;20045;-60
2021/09/28 11:08:35;;;;;;;10.18;4.85;;;;;;;9.96;58.15;100580.09;5046616;28;20317;-62
2021/09/28 11:11:02;;;;;;;9.82;5.40;;;;;;;9.76;59.15;100572.19;5047098;28;20052;-61
2021/09/28 11:13:33;;;;;;;7.90;4.70;;;;;;;9.70;59.14;100565.03;5049674;28;20045;-61
2021/09/28 11:15:59;;;;;;;7.72;4.88;;;;;;;9.60;59.72;100563.81;5047772;28;20486;-62
2021/09/28 11:18:25;;;;;;;6.72;4.45;;;;;;;9.23;60.95;100565.97;5048059;28;20517;-66
2021/09/28 11:20:51;;;;;;;8.88;4.50;;;;;;;9.18;60.92;100569.22;5052407;28;20045;-66
2021/09/28 11:23:17;;;;;;;6.38;4.63;;;;;;;9.09;61.13;100563.28;5053599;28;20057;-66
2021/09/28 11:25:52;;;;;;;7.00;4.40;;;;;;;9.15;61.21;100561.69;5061650;28;20070;-68
2021/09/28 11:28:21;;;;;;;10.60;5.00;;;;;;;9.25;60.43;100562.09;5061299;28;20332;-66
2021/09/28 11:30:57;;;;;;;7.78;4.80;;;;;;;9.38;59.13;100577.19;5062569;28;20033;-66
2021/09/28 11:33:23;;;;;;;7.20;4.93;;;;;;;9.38;59.79;100568.44;5059995;28;20048;-66
2021/09/28 11:35:56;;;;;;;13.52;4.88;;;;;;;9.36;59.38;100565.19;5062190;28;20040;-68